BARTON ATIS
Please check data is current before use. Last Updated 23/03/2017 10:03:08 z
This page displays the latest information from the ‘Barton ATIS’, which provides real time information on the availability of the airport, unofficial weather observations and status of facilities. Please ensure that you check the date and time to ensure the data below is current. All times are UTC.
D 1005 z
STATUS: Airfield Closed to Fixed Wing Aircraft

RWY 08L / CCT LH

M/CR QNH 1019

BARTON QFE 1017

NEXT RUNWAY INSPECTION:23/03/17 12:00 AIRFIELD CLOSES:1827z

UNOFFICIAL WEATHER:
Unofficial Weather EGCB 231005Z 06014G26KT 9999 FEW030 09/06 Q1019


BRIEFING:
-CRANE ACTIVITY WITHIN ATZ. REFER TO NOTAMS.
-CAUTION INCREASED BIRD ACTIVITY.




TOUCH AND GO STATUS:
Not Permitted

08L/26R - Closed due Waterlogging
08R/26L - Closed due Waterlogging
14/32 - Closed due Waterlogging
02/20 - Closed due Waterlogging

SURFACE WIND TREND:
(updated 24hrs)